sensor_id;sensor_type;location;lat;lon;timestamp;pressure;altitude;pressure_sealevel;temperature;humidity
2841;BME280;53423;49.224;12.074;2023-05-10T00:02:02;97096.91;;;14.01;60.81
2841;BME280;53423;49.224;12.074;2023-05-10T00:04:31;97102.59;;;14.04;59.44
2841;BME280;53423;49.224;12.074;2023-05-10T00:06:59;97095.13;;;14.14;60.42
2841;BME280;53423;49.224;12.074;2023-05-10T00:09:27;97085.41;;;14.21;59.78
2841;BME280;53423;49.224;12.074;2023-05-10T00:11:55;97086.03;;;14.30;58.96
2841;BME280;53423;49.224;12.074;2023-05-10T00:14:25;97077.13;;;14.31;58.55
2841;BME280;53423;49.224;12.074;2023-05-10T00:16:53;97085.56;;;14.20;60.13
2841;BME280;53423;49.224;12.074;2023-05-10T00:19:21;97079.31;;;14.21;60.12
2841;BME280;53423;49.224;12.074;2023-05-10T00:21:50;97076.91;;;14.26;60.36
2841;BME280;53423;49.224;12.074;2023-05-10T00:24:18;97071.81;;;14.24;59.70
2841;BME280;53423;49.224;12.074;2023-05-10T00:26:46;97066.53;;;14.24;58.83
2841;BME280;53423;49.224;12.074;2023-05-10T00:29:13;97065.34;;;14.27;59.47
2841;BME280;53423;49.224;12.074;2023-05-10T00:31:41;97059.28;;;14.26;59.54
2841;BME280;53423;49.224;12.074;2023-05-10T00:34:09;97062.25;;;14.23;58.54
2841;BME280;53423;49.224;12.074;2023-05-10T00:36:37;97059.41;;;14.25;58.28
2841;BME280;53423;49.224;12.074;2023-05-10T00:39:06;97057.22;;;14.28;59.47
2841;BME280;53423;49.224;12.074;2023-05-10T00:41:34;97063.69;;;14.19;59.55
2841;BME280;53423;49.224;12.074;2023-05-10T00:44:02;97054.78;;;14.27;58.72
2841;BME280;53423;49.224;12.074;2023-05-10T00:46:30;97052.53;;;14.24;58.61
2841;BME280;53423;49.224;12.074;2023-05-10T00:48:59;97054.56;;;14.22;59.12
2841;BME280;53423;49.224;12.074;2023-05-10T00:51:27;97051.72;;;14.17;59.21
2841;BME280;53423;49.224;12.074;2023-05-10T00:53:55;97051.94;;;14.22;59.71
2841;BME280;53423;49.224;12.074;2023-05-10T00:56:25;97049.91;;;14.11;60.39
2841;BME280;53423;49.224;12.074;2023-05-10T00:58:53;97053.16;;;14.13;60.35
2841;BME280;53423;49.224;12.074;2023-05-10T01:01:21;97056.78;;;13.99;61.13
2841;BME280;53423;49.224;12.074;2023-05-10T01:03:49;97048.88;;;13.99;60.89
2841;BME280;53423;49.224;12.074;2023-05-10T01:06:17;97044.22;;;14.01;61.22
2841;BME280;53423;49.224;12.074;2023-05-10T01:08:45;97044.22;;;13.94;61.14
2841;BME280;53423;49.224;12.074;2023-05-10T01:11:14;97046.22;;;13.79;61.82
2841;BME280;53423;49.224;12.074;2023-05-10T01:13:47;97049.66;;;13.86;61.19
2841;BME280;53423;49.224;12.074;2023-05-10T01:16:18;97050.47;;;13.87;61.99
2841;BME280;53423;49.224;12.074;2023-05-10T01:18:46;97050.47;;;14.00;59.40
2841;BME280;53423;49.224;12.074;2023-05-10T01:21:25;97049.28;;;13.89;61.67
2841;BME280;53423;49.224;12.074;2023-05-10T01:24:12;97048.88;;;13.92;60.39
2841;BME280;53423;49.224;12.074;2023-05-10T01:27:05;97057.56;;;13.86;59.06
2841;BME280;53423;49.224;12.074;2023-05-10T01:30:05;97051.50;;;13.92;59.73
2841;BME280;53423;49.224;12.074;2023-05-10T01:32:48;97052.31;;;13.93;61.75
2841;BME280;53423;49.224;12.074;2023-05-10T01:35:24;97054.75;;;13.94;61.67
2841;BME280;53423;49.224;12.074;2023-05-10T01:38:01;97054.16;;;13.99;61.68
2841;BME280;53423;49.224;12.074;2023-05-10T01:40:36;97055.34;;;13.90;61.72
2841;BME280;53423;49.224;12.074;2023-05-10T01:43:12;97060.41;;;13.91;62.30
2841;BME280;53423;49.224;12.074;2023-05-10T01:45:50;97058.19;;;13.95;60.61
2841;BME280;53423;49.224;12.074;2023-05-10T01:48:25;97056.38;;;13.95;60.93
2841;BME280;53423;49.224;12.074;2023-05-10T01:50:56;97060.81;;;14.01;60.79
2841;BME280;53423;49.224;12.074;2023-05-10T01:53:26;97064.47;;;14.00;60.43
2841;BME280;53423;49.224;12.074;2023-05-10T01:55:56;97067.31;;;13.99;59.04
2841;BME280;53423;49.224;12.074;2023-05-10T01:58:27;97064.28;;;14.08;59.33
2841;BME280;53423;49.224;12.074;2023-05-10T02:00:58;97063.50;;;14.08;59.68
2841;BME280;53423;49.224;12.074;2023-05-10T02:03:31;97069.75;;;14.00;61.65
2841;BME280;53423;49.224;12.074;2023-05-10T02:06:00;97060.22;;;13.99;60.71
2841;BME280;53423;49.224;12.074;2023-05-10T02:08:28;97067.31;;;13.92;61.43
2841;BME280;53423;49.224;12.074;2023-05-10T02:10:58;97068.91;;;13.93;62.17
2841;BME280;53423;49.224;12.074;2023-05-10T02:13:27;97067.13;;;14.00;61.31
2841;BME280;53423;49.224;12.074;2023-05-10T02:15:56;97057.75;;;13.91;62.48
2841;BME280;53423;49.224;12.074;2023-05-10T02:18:25;97057.81;;;13.98;60.41
2841;BME280;53423;49.224;12.074;2023-05-10T02:20:56;97053.53;;;13.90;61.17
2841;BME280;53423;49.224;12.074;2023-05-10T02:23:26;97049.91;;;13.98;60.62
2841;BME280;53423;49.224;12.074;2023-05-10T02:25:54;97058.78;;;13.97;60.58
2841;BME280;53423;49.224;12.074;2023-05-10T02:28:25;97053.94;;;14.00;59.45
2841;BME280;53423;49.224;12.074;2023-05-10T02:30:55;97053.13;;;14.06;58.88
2841;BME280;53423;49.224;12.074;2023-05-10T02:33:25;97054.34;;;14.17;58.00
2841;BME280;53423;49.224;12.074;2023-05-10T02:35:56;97048.66;;;14.20;59.11
2841;BME280;53423;49.224;12.074;2023-05-10T02:38:25;97050.53;;;14.13;58.58
2841;BME280;53423;49.224;12.074;2023-05-10T02:40:55;97054.56;;;14.09;58.97
2841;BME280;53423;49.224;12.074;2023-05-10T02:43:24;97059.22;;;14.00;59.23
2841;BME280;53423;49.224;12.074;2023-05-10T02:45:53;97053.31;;;14.11;58.05
2841;BME280;53423;49.224;12.074;2023-05-10T02:48:21;97055.38;;;14.16;57.12
2841;BME280;53423;49.224;12.074;2023-05-10T02:50:50;97056.38;;;14.15;58.02
2841;BME280;53423;49.224;12.074;2023-05-10T02:53:23;97057.38;;;13.94;59.96
2841;BME280;53423;49.224;12.074;2023-05-10T02:55:52;97056.34;;;13.82;59.49
2841;BME280;53423;49.224;12.074;2023-05-10T02:58:23;97054.53;;;13.89;59.89
2841;BME280;53423;49.224;12.074;2023-05-10T03:00:52;97056.75;;;13.79;61.59
2841;BME280;53423;49.224;12.074;2023-05-10T03:03:20;97053.72;;;13.82;60.00
2841;BME280;53423;49.224;12.074;2023-05-10T03:05:48;97050.06;;;13.83;60.86
2841;BME280;53423;49.224;12.074;2023-05-10T03:08:16;97048.03;;;13.72;62.11
2841;BME280;53423;49.224;12.074;2023-05-10T03:10:54;97046.59;;;13.76;61.28
2841;BME280;53423;49.224;12.074;2023-05-10T03:13:29;97049.63;;;13.66;61.92
2841;BME280;53423;49.224;12.074;2023-05-10T03:16:07;97060.97;;;13.67;63.12
2841;BME280;53423;49.224;12.074;2023-05-10T03:18:42;97050.66;;;13.65;64.26
2841;BME280;53423;49.224;12.074;2023-05-10T03:21:13;97044.34;;;13.66;63.00
2841;BME280;53423;49.224;12.074;2023-05-10T03:23:46;97052.03;;;13.55;64.38
2841;BME280;53423;49.224;12.074;2023-05-10T03:26:23;97059.53;;;13.58;64.72
2841;BME280;53423;49.224;12.074;2023-05-10T03:28:52;97059.94;;;13.55;65.16
2841;BME280;53423;49.224;12.074;2023-05-10T03:31:20;97061.97;;;13.66;64.17
2841;BME280;53423;49.224;12.074;2023-05-10T03:33:49;97067.00;;;13.54;65.95
2841;BME280;53423;49.224;12.074;2023-05-10T03:36:17;97072.06;;;13.56;65.09
2841;BME280;53423;49.224;12.074;2023-05-10T03:38:45;97072.69;;;13.58;64.81
2841;BME280;53423;49.224;12.074;2023-05-10T03:41:13;97068.25;;;13.58;65.82
2841;BME280;53423;49.224;12.074;2023-05-10T03:43:43;97064.97;;;13.50;66.14
2841;BME280;53423;49.224;12.074;2023-05-10T03:46:11;97066.59;;;13.51;66.10
2841;BME280;53423;49.224;12.074;2023-05-10T03:48:39;97073.63;;;13.37;67.52
2841;BME280;53423;49.224;12.074;2023-05-10T03:51:07;97083.81;;;13.47;68.26
2841;BME280;53423;49.224;12.074;2023-05-10T03:53:34;97076.09;;;13.45;68.40
2841;BME280;53423;49.224;12.074;2023-05-10T03:56:03;97082.59;;;13.49;67.67
2841;BME280;53423;49.224;12.074;2023-05-10T03:58:31;97089.47;;;13.44;68.39
2841;BME280;53423;49.224;12.074;2023-05-10T04:01:00;97082.59;;;13.49;68.53
2841;BME280;53423;49.224;12.074;2023-05-10T04:03:28;97090.47;;;13.43;70.59
2841;BME280;53423;49.224;12.074;2023-05-10T04:06:00;97083.13;;;13.32;71.22
2841;BME280;53423;49.224;12.074;2023-05-10T04:08:29;97082.34;;;13.38;71.15
2841;BME280;53423;49.224;12.074;2023-05-10T04:11:04;97090.69;;;13.48;71.45
2841;BME280;53423;49.224;12.074;2023-05-10T04:13:33;97088.03;;;13.41;71.88
2841;BME280;53423;49.224;12.074;2023-05-10T04:16:03;97082.59;;;13.49;70.41
2841;BME280;53423;49.224;12.074;2023-05-10T04:18:31;97088.44;;;13.45;71.59
2841;BME280;53423;49.224;12.074;2023-05-10T04:20:59;97097.47;;;13.29;72.57
2841;BME280;53423;49.224;12.074;2023-05-10T04:23:27;97091.78;;;13.26;71.75
2841;BME280;53423;49.224;12.074;2023-05-10T04:25:59;97092.22;;;13.29;71.96
2841;BME280;53423;49.224;12.074;2023-05-10T04:28:27;97085.75;;;13.32;73.04
2841;BME280;53423;49.224;12.074;2023-05-10T04:31:01;97094.91;;;13.42;73.20
2841;BME280;53423;49.224;12.074;2023-05-10T04:33:30;97098.69;;;13.27;73.40
2841;BME280;53423;49.224;12.074;2023-05-10T04:35:58;97099.50;;;13.27;73.18
2841;BME280;53423;49.224;12.074;2023-05-10T04:38:27;97097.50;;;13.36;73.31
2841;BME280;53423;49.224;12.074;2023-05-10T04:41:03;97099.16;;;13.37;73.50
2841;BME280;53423;49.224;12.074;2023-05-10T04:43:31;97097.16;;;13.39;74.24
2841;BME280;53423;49.224;12.074;2023-05-10T04:45:59;97109.28;;;13.40;73.07
2841;BME280;53423;49.224;12.074;2023-05-10T04:48:27;97103.78;;;13.35;72.61
2841;BME280;53423;49.224;12.074;2023-05-10T04:50:57;97112.19;;;13.58;72.19
2841;BME280;53423;49.224;12.074;2023-05-10T04:53:25;97106.91;;;13.51;72.54
2841;BME280;53423;49.224;12.074;2023-05-10T04:55:53;97110.56;;;13.50;73.04
2841;BME280;53423;49.224;12.074;2023-05-10T04:58:21;97117.81;;;13.48;72.40
2841;BME280;53423;49.224;12.074;2023-05-10T05:00:49;97117.00;;;13.48;72.96
2841;BME280;53423;49.224;12.074;2023-05-10T05:03:17;97112.19;;;13.58;71.30
2841;BME280;53423;49.224;12.074;2023-05-10T05:05:45;97120.09;;;13.64;71.51
2841;BME280;53423;49.224;12.074;2023-05-10T05:08:14;97118.13;;;13.73;71.25
2841;BME280;53423;49.224;12.074;2023-05-10T05:10:42;97120.13;;;13.71;71.04
2841;BME280;53423;49.224;12.074;2023-05-10T05:13:12;97126.63;;;13.75;71.75
2841;BME280;53423;49.224;12.074;2023-05-10T05:15:40;97127.59;;;13.61;71.75
2841;BME280;53423;49.224;12.074;2023-05-10T05:18:08;97124.28;;;13.46;72.16
2841;BME280;53423;49.224;12.074;2023-05-10T05:20:36;97132.50;;;13.70;71.21
2841;BME280;53423;49.224;12.074;2023-05-10T05:23:04;97135.72;;;13.66;71.35
2841;BME280;53423;49.224;12.074;2023-05-10T05:25:33;97141.13;;;13.51;72.57
2841;BME280;53423;49.224;12.074;2023-05-10T05:28:02;97146.03;;;13.61;72.12
2841;BME280;53423;49.224;12.074;2023-05-10T05:30:30;97150.63;;;13.52;72.31
2841;BME280;53423;49.224;12.074;2023-05-10T05:32:58;97156.00;;;13.72;71.79
2841;BME280;53423;49.224;12.074;2023-05-10T05:35:26;97152.53;;;13.65;72.02
2841;BME280;53423;49.224;12.074;2023-05-10T05:37:54;97159.59;;;13.58;72.49
2841;BME280;53423;49.224;12.074;2023-05-10T05:40:22;97154.19;;;13.73;72.22
2841;BME280;53423;49.224;12.074;2023-05-10T05:42:51;97153.34;;;13.59;72.69
2841;BME280;53423;49.224;12.074;2023-05-10T05:45:19;97160.63;;;13.63;72.23
2841;BME280;53423;49.224;12.074;2023-05-10T05:47:47;97151.91;;;13.63;72.24
2841;BME280;53423;49.224;12.074;2023-05-10T05:50:15;97163.69;;;13.67;72.47
2841;BME280;53423;49.224;12.074;2023-05-10T05:52:43;97161.50;;;13.77;72.21
2841;BME280;53423;49.224;12.074;2023-05-10T05:55:11;97162.91;;;13.80;72.80
2841;BME280;53423;49.224;12.074;2023-05-10T05:57:39;97163.16;;;13.91;72.97
2841;BME280;53423;49.224;12.074;2023-05-10T06:00:09;97173.53;;;13.93;73.07
2841;BME280;53423;49.224;12.074;2023-05-10T06:02:37;97166.22;;;13.95;73.51
2841;BME280;53423;49.224;12.074;2023-05-10T06:05:06;97173.16;;;14.15;72.57
2841;BME280;53423;49.224;12.074;2023-05-10T06:07:34;97174.59;;;14.18;72.18
2841;BME280;53423;49.224;12.074;2023-05-10T06:10:03;97171.13;;;14.11;72.75
2841;BME280;53423;49.224;12.074;2023-05-10T06:12:31;97180.31;;;14.21;71.57
2841;BME280;53423;49.224;12.074;2023-05-10T06:14:59;97183.19;;;14.26;71.74
2841;BME280;53423;49.224;12.074;2023-05-10T06:17:28;97183.22;;;14.46;70.96
2841;BME280;53423;49.224;12.074;2023-05-10T06:19:56;97184.25;;;14.51;71.33
2841;BME280;53423;49.224;12.074;2023-05-10T06:22:24;97183.97;;;14.33;71.53
2841;BME280;53423;49.224;12.074;2023-05-10T06:24:52;97186.25;;;14.49;71.33
2841;BME280;53423;49.224;12.074;2023-05-10T06:27:20;97196.19;;;14.47;70.77
2841;BME280;53423;49.224;12.074;2023-05-10T06:29:48;97199.06;;;14.72;70.75
2841;BME280;53423;49.224;12.074;2023-05-10T06:32:22;97190.34;;;14.71;70.81
2841;BME280;53423;49.224;12.074;2023-05-10T06:34:51;97201.09;;;14.89;70.70
2841;BME280;53423;49.224;12.074;2023-05-10T06:37:19;97197.84;;;14.87;70.72
2841;BME280;53423;49.224;12.074;2023-05-10T06:39:47;97206.59;;;15.01;70.14
2841;BME280;53423;49.224;12.074;2023-05-10T06:42:15;97207.78;;;14.79;71.72
2841;BME280;53423;49.224;12.074;2023-05-10T06:44:42;97204.34;;;14.85;70.61
2841;BME280;53423;49.224;12.074;2023-05-10T06:47:11;97210.81;;;15.02;71.31
2841;BME280;53423;49.224;12.074;2023-05-10T06:49:39;97209.41;;;15.13;70.74
2841;BME280;53423;49.224;12.074;2023-05-10T06:52:08;97211.03;;;15.01;71.37
2841;BME280;53423;49.224;12.074;2023-05-10T06:54:36;97213.50;;;15.09;71.13
2841;BME280;53423;49.224;12.074;2023-05-10T06:57:03;97211.22;;;15.12;70.68
2841;BME280;53423;49.224;12.074;2023-05-10T06:59:45;97213.47;;;15.28;69.57
2841;BME280;53423;49.224;12.074;2023-05-10T07:02:13;97216.34;;;15.14;69.99
2841;BME280;53423;49.224;12.074;2023-05-10T07:04:41;97216.31;;;15.20;70.07
2841;BME280;53423;49.224;12.074;2023-05-10T07:07:10;97218.09;;;14.48;71.29
2841;BME280;53423;49.224;12.074;2023-05-10T07:09:38;97215.91;;;14.71;71.38
2841;BME280;53423;49.224;12.074;2023-05-10T07:12:06;97222.63;;;14.93;70.67
2841;BME280;53423;49.224;12.074;2023-05-10T07:14:37;97228.31;;;14.90;71.27
2841;BME280;53423;49.224;12.074;2023-05-10T07:17:05;97227.06;;;15.06;71.10
2841;BME280;53423;49.224;12.074;2023-05-10T07:19:33;97236.81;;;15.25;71.13
2841;BME280;53423;49.224;12.074;2023-05-10T07:22:01;97228.31;;;15.42;70.38
2841;BME280;53423;49.224;12.074;2023-05-10T07:24:31;97233.59;;;15.10;70.75
2841;BME280;53423;49.224;12.074;2023-05-10T07:26:59;97236.81;;;15.57;70.07
2841;BME280;53423;49.224;12.074;2023-05-10T07:29:27;97242.72;;;15.20;69.28
2841;BME280;53423;49.224;12.074;2023-05-10T07:31:56;97248.22;;;15.45;69.91
2841;BME280;53423;49.224;12.074;2023-05-10T07:34:24;97236.97;;;15.75;67.61
2841;BME280;53423;49.224;12.074;2023-05-10T07:36:52;97235.88;;;16.02;67.49
2841;BME280;53423;49.224;12.074;2023-05-10T07:39:20;97241.19;;;16.47;67.28
2841;BME280;53423;49.224;12.074;2023-05-10T07:41:55;97234.97;;;16.66;66.49
2841;BME280;53423;49.224;12.074;2023-05-10T07:44:23;97251.91;;;16.58;66.36
2841;BME280;53423;49.224;12.074;2023-05-10T07:46:51;97250.63;;;16.98;65.63
2841;BME280;53423;49.224;12.074;2023-05-10T07:49:19;97241.97;;;17.34;64.34
2841;BME280;53423;49.224;12.074;2023-05-10T07:51:48;97251.56;;;17.35;65.13
2841;BME280;53423;49.224;12.074;2023-05-10T07:54:15;97245.72;;;17.51;63.23
2841;BME280;53423;49.224;12.074;2023-05-10T07:56:43;97241.31;;;17.14;65.25
2841;BME280;53423;49.224;12.074;2023-05-10T07:59:17;97242.25;;;17.51;63.54
2841;BME280;53423;49.224;12.074;2023-05-10T08:01:45;97239.66;;;17.87;61.85
2841;BME280;53423;49.224;12.074;2023-05-10T08:04:13;97241.97;;;17.34;63.21
2841;BME280;53423;49.224;12.074;2023-05-10T08:06:41;97240.53;;;17.38;64.28
2841;BME280;53423;49.224;12.074;2023-05-10T08:09:09;97251.47;;;16.92;64.42
2841;BME280;53423;49.224;12.074;2023-05-10T08:11:37;97248.94;;;16.79;65.15
2841;BME280;53423;49.224;12.074;2023-05-10T08:14:05;97249.50;;;16.06;67.57
2841;BME280;53423;49.224;12.074;2023-05-10T08:16:34;97253.00;;;15.87;68.25
2841;BME280;53423;49.224;12.074;2023-05-10T08:19:02;97261.59;;;16.27;68.61
2841;BME280;53423;49.224;12.074;2023-05-10T08:21:33;97260.63;;;16.14;69.07
2841;BME280;53423;49.224;12.074;2023-05-10T08:24:01;97249.31;;;16.01;69.23
2841;BME280;53423;49.224;12.074;2023-05-10T08:26:29;97255.56;;;16.06;69.91
2841;BME280;53423;49.224;12.074;2023-05-10T08:28:56;97264.72;;;16.10;69.77
2841;BME280;53423;49.224;12.074;2023-05-10T08:31:24;97258.22;;;16.06;69.40
2841;BME280;53423;49.224;12.074;2023-05-10T08:33:54;97260.97;;;15.80;69.41
2841;BME280;53423;49.224;12.074;2023-05-10T08:36:22;97267.84;;;15.81;70.44
2841;BME280;53423;49.224;12.074;2023-05-10T08:38:51;97270.09;;;15.78;69.16
2841;BME280;53423;49.224;12.074;2023-05-10T08:41:19;97273.53;;;15.91;69.27
2841;BME280;53423;49.224;12.074;2023-05-10T08:43:49;97274.41;;;16.23;69.96
2841;BME280;53423;49.224;12.074;2023-05-10T08:46:19;97279.03;;;16.47;69.32
2841;BME280;53423;49.224;12.074;2023-05-10T08:48:48;97278.75;;;16.62;67.47
2841;BME280;53423;49.224;12.074;2023-05-10T08:51:22;97279.06;;;17.09;66.03
2841;BME280;53423;49.224;12.074;2023-05-10T08:53:54;97278.59;;;17.44;65.58
2841;BME280;53423;49.224;12.074;2023-05-10T08:56:23;97285.09;;;17.72;63.34
2841;BME280;53423;49.224;12.074;2023-05-10T08:58:51;97285.31;;;17.46;64.27
2841;BME280;53423;49.224;12.074;2023-05-10T09:01:20;97284.41;;;17.59;65.02
2841;BME280;53423;49.224;12.074;2023-05-10T09:03:49;97289.38;;;17.49;64.18
2841;BME280;53423;49.224;12.074;2023-05-10T09:06:19;97277.41;;;17.64;62.14
2841;BME280;53423;49.224;12.074;2023-05-10T09:08:48;97284.22;;;17.78;60.42
2841;BME280;53423;49.224;12.074;2023-05-10T09:11:16;97285.34;;;18.07;59.86
2841;BME280;53423;49.224;12.074;2023-05-10T09:13:44;97290.50;;;18.56;59.59
2841;BME280;53423;49.224;12.074;2023-05-10T09:16:12;97290.00;;;19.07;58.46
2841;BME280;53423;49.224;12.074;2023-05-10T09:18:45;97294.03;;;19.73;57.15
2841;BME280;53423;49.224;12.074;2023-05-10T09:21:13;97283.03;;;20.28;55.20
2841;BME280;53423;49.224;12.074;2023-05-10T09:23:44;97290.78;;;19.83;55.98
2841;BME280;53423;49.224;12.074;2023-05-10T09:26:14;97291.97;;;19.23;56.52
2841;BME280;53423;49.224;12.074;2023-05-10T09:28:52;97290.84;;;18.89;57.05
2841;BME280;53423;49.224;12.074;2023-05-10T09:31:20;97292.97;;;17.79;58.63
2841;BME280;53423;49.224;12.074;2023-05-10T09:33:49;97291.56;;;17.94;59.16
2841;BME280;53423;49.224;12.074;2023-05-10T09:36:18;97294.06;;;17.89;59.42
2841;BME280;53423;49.224;12.074;2023-05-10T09:38:48;97294.97;;;17.83;60.23
2841;BME280;53423;49.224;12.074;2023-05-10T09:41:18;97295.13;;;17.88;58.78
2841;BME280;53423;49.224;12.074;2023-05-10T09:43:46;97301.84;;;17.91;58.68
2841;BME280;53423;49.224;12.074;2023-05-10T09:46:15;97299.13;;;17.97;60.08
2841;BME280;53423;49.224;12.074;2023-05-10T09:48:44;97299.44;;;17.83;59.58
2841;BME280;53423;49.224;12.074;2023-05-10T09:51:19;97300.94;;;17.79;59.73
2841;BME280;53423;49.224;12.074;2023-05-10T09:53:48;97314.97;;;17.79;59.79
2841;BME280;53423;49.224;12.074;2023-05-10T09:56:35;97312.63;;;17.47;58.51
2841;BME280;53423;49.224;12.074;2023-05-10T09:59:06;97304.78;;;17.58;58.57
2841;BME280;53423;49.224;12.074;2023-05-10T10:01:34;97300.94;;;17.79;57.57
2841;BME280;53423;49.224;12.074;2023-05-10T10:04:03;97301.69;;;17.86;57.91
2841;BME280;53423;49.224;12.074;2023-05-10T10:06:35;97297.84;;;17.82;57.80
2841;BME280;53423;49.224;12.074;2023-05-10T10:09:06;97301.47;;;18.23;56.90
2841;BME280;53423;49.224;12.074;2023-05-10T10:11:35;97294.94;;;18.44;57.09
2841;BME280;53423;49.224;12.074;2023-05-10T10:14:03;97292.50;;;18.42;56.36
2841;BME280;53423;49.224;12.074;2023-05-10T10:16:32;97299.78;;;18.77;55.48
2841;BME280;53423;49.224;12.074;2023-05-10T10:19:00;97296.22;;;18.71;56.34
2841;BME280;53423;49.224;12.074;2023-05-10T10:21:28;97295.44;;;19.12;55.49
2841;BME280;53423;49.224;12.074;2023-05-10T10:23:57;97299.44;;;19.44;55.18
2841;BME280;53423;49.224;12.074;2023-05-10T10:26:28;97303.03;;;19.61;54.61
2841;BME280;53423;49.224;12.074;2023-05-10T10:29:04;97296.91;;;20.69;52.37
2841;BME280;53423;49.224;12.074;2023-05-10T10:31:40;97285.81;;;20.89;50.95
2841;BME280;53423;49.224;12.074;2023-05-10T10:34:24;97287.81;;;21.10;49.90
2841;BME280;53423;49.224;12.074;2023-05-10T10:36:54;97275.78;;;21.74;48.68
2841;BME280;53423;49.224;12.074;2023-05-10T10:39:23;97285.44;;;22.35;47.60
2841;BME280;53423;49.224;12.074;2023-05-10T10:41:54;97280.19;;;22.61;47.25
2841;BME280;53423;49.224;12.074;2023-05-10T10:44:25;97284.44;;;22.84;46.67
2841;BME280;53423;49.224;12.074;2023-05-10T10:49:51;97283.41;;;22.42;44.11
2841;BME280;53423;49.224;12.074;2023-05-10T10:52:24;97274.81;;;23.09;44.47
2841;BME280;53423;49.224;12.074;2023-05-10T10:54:59;97282.63;;;23.16;42.84
2841;BME280;53423;49.224;12.074;2023-05-10T10:57:31;97264.09;;;24.14;40.86
2841;BME280;53423;49.224;12.074;2023-05-10T11:00:22;97259.31;;;24.16;41.75
2841;BME280;53423;49.224;12.074;2023-05-10T11:02:52;97257.75;;;25.72;40.21
2841;BME280;53423;49.224;12.074;2023-05-10T11:05:41;97256.72;;;26.67;37.31
2841;BME280;53423;49.224;12.074;2023-05-10T11:08:15;97248.59;;;26.77;35.31
2841;BME280;53423;49.224;12.074;2023-05-10T11:10:51;97243.78;;;25.96;37.29
2841;BME280;53423;49.224;12.074;2023-05-10T11:13:32;97252.66;;;25.11;38.13
2841;BME280;53423;49.224;12.074;2023-05-10T11:16:11;97252.63;;;25.01;37.76
2841;BME280;53423;49.224;12.074;2023-05-10T11:18:40;97254.81;;;24.27;39.55
2841;BME280;53423;49.224;12.074;2023-05-10T11:21:19;97259.84;;;23.35;41.79
2841;BME280;53423;49.224;12.074;2023-05-10T11:23:51;97266.13;;;22.71;42.40
2841;BME280;53423;49.224;12.074;2023-05-10T11:26:23;97272.22;;;22.23;44.25
2841;BME280;53423;49.224;12.074;2023-05-10T11:28:54;97271.09;;;21.81;44.89
2841;BME280;53423;49.224;12.074;2023-05-10T11:31:23;97278.28;;;20.18;49.99
2841;BME280;53423;49.224;12.074;2023-05-10T11:33:55;97271.88;;;20.08;51.38
2841;BME280;53423;49.224;12.074;2023-05-10T11:36:25;97267.97;;;20.10;51.46
2841;BME280;53423;49.224;12.074;2023-05-10T11:38:54;97266.13;;;19.88;52.15
2841;BME280;53423;49.224;12.074;2023-05-10T11:41:23;97272.53;;;19.75;52.64
2841;BME280;53423;49.224;12.074;2023-05-10T11:43:54;97274.91;;;20.11;51.02
2841;BME280;53423;49.224;12.074;2023-05-10T11:46:23;97282.94;;;19.65;52.97
2841;BME280;53423;49.224;12.074;2023-05-10T11:48:52;97282.47;;;19.56;53.05
2841;BME280;53423;49.224;12.074;2023-05-10T11:51:21;97311.03;;;19.08;54.87
2841;BME280;53423;49.224;12.074;2023-05-10T11:53:52;97312.47;;;18.63;56.61
2841;BME280;53423;49.224;12.074;2023-05-10T11:56:20;97316.41;;;18.18;55.12
2841;BME280;53423;49.224;12.074;2023-05-10T11:58:54;97324.75;;;17.61;55.87
2841;BME280;53423;49.224;12.074;2023-05-10T12:01:23;97319.56;;;17.48;58.18
2841;BME280;53423;49.224;12.074;2023-05-10T12:03:53;97326.69;;;17.16;59.18
2841;BME280;53423;49.224;12.074;2023-05-10T12:06:22;97324.09;;;17.09;60.54
2841;BME280;53423;49.224;12.074;2023-05-10T12:08:50;97319.16;;;16.88;61.80
2841;BME280;53423;49.224;12.074;2023-05-10T12:11:20;97324.97;;;16.97;63.03
2841;BME280;53423;49.224;12.074;2023-05-10T12:13:51;97325.91;;;17.09;63.41
2841;BME280;53423;49.224;12.074;2023-05-10T12:16:22;97318.41;;;17.37;61.32
2841;BME280;53423;49.224;12.074;2023-05-10T12:18:51;97324.44;;;17.44;60.80
2841;BME280;53423;49.224;12.074;2023-05-10T12:21:20;97314.41;;;17.53;61.97
2841;BME280;53423;49.224;12.074;2023-05-10T12:23:50;97316.53;;;17.37;63.18
2841;BME280;53423;49.224;12.074;2023-05-10T12:26:18;97307.16;;;17.66;61.10
2841;BME280;53423;49.224;12.074;2023-05-10T12:28:49;97301.53;;;17.56;62.22
2841;BME280;53423;49.224;12.074;2023-05-10T12:31:16;97311.22;;;17.69;62.73
2841;BME280;53423;49.224;12.074;2023-05-10T12:33:46;97311.75;;;17.53;61.14
2841;BME280;53423;49.224;12.074;2023-05-10T12:36:16;97310.13;;;16.96;63.59
2841;BME280;53423;49.224;12.074;2023-05-10T12:38:45;97308.66;;;17.56;62.25
2841;BME280;53423;49.224;12.074;2023-05-10T12:41:15;97312.78;;;17.76;61.54
2841;BME280;53423;49.224;12.074;2023-05-10T12:43:44;97305.94;;;17.87;62.39
2841;BME280;53423;49.224;12.074;2023-05-10T12:46:14;97311.78;;;17.95;61.25
2841;BME280;53423;49.224;12.074;2023-05-10T12:48:43;97310.69;;;18.21;60.85
2841;BME280;53423;49.224;12.074;2023-05-10T12:51:14;97309.59;;;18.46;60.10
2841;BME280;53423;49.224;12.074;2023-05-10T12:53:45;97317.75;;;17.91;60.50
2841;BME280;53423;49.224;12.074;2023-05-10T12:56:15;97324.72;;;18.46;61.11
2841;BME280;53423;49.224;12.074;2023-05-10T12:58:43;97323.75;;;18.40;60.87
2841;BME280;53423;49.224;12.074;2023-05-10T13:01:14;97329.44;;;18.44;61.08
2841;BME280;53423;49.224;12.074;2023-05-10T13:03:42;97321.91;;;17.56;61.84
2841;BME280;53423;49.224;12.074;2023-05-10T13:06:10;97315.03;;;17.97;61.96
2841;BME280;53423;49.224;12.074;2023-05-10T13:08:41;97323.41;;;17.94;61.03
2841;BME280;53423;49.224;12.074;2023-05-10T13:11:09;97322.75;;;18.35;61.82
2841;BME280;53423;49.224;12.074;2023-05-10T13:13:37;97316.06;;;18.32;60.97
2841;BME280;53423;49.224;12.074;2023-05-10T13:16:05;97320.72;;;18.55;60.49
2841;BME280;53423;49.224;12.074;2023-05-10T13:18:33;97321.81;;;18.66;61.48